Time;durP1;ratioP1;P1;durP2;ratioP2;P2;SDS_P1;SDS_P2;PMS_P1;PMS_P2;Temp;Humidity;BMP_temperature;BMP_pressure;BME280_temperature;BME280_humidity;BME280_pressure;Samples;Min_cycle;Max_cycle;Signal;HPM_P1;HPM_P2
2023/09/11 00:00:06;;;;;;;;;;;;;;;25.68;94.55;101289.72;5272522;28;19916;-74
2023/09/11 00:02:37;;;;;;;;;;;;;;;25.63;95.85;101289.53;5274648;28;19923;-74
2023/09/11 00:05:08;;;;;;;;;;;;;;;25.61;96.10;101283.59;5275477;28;19920;-74
2023/09/11 00:07:40;;;;;;;;;;;;;;;25.60;95.90;101279.25;5274914;28;19921;-74
2023/09/11 00:10:11;;;;;;;;;;;;;;;25.59;97.12;101274.09;5273608;28;19962;-74
2023/09/11 00:12:42;;;;;;;;;;;;;;;25.59;96.66;101274.91;5274868;28;19927;-74
2023/09/11 00:15:13;;;;;;;;;;;;;;;25.59;97.27;101274.09;5274898;28;19920;-75
2023/09/11 00:17:45;;;;;;;;;;;;;;;25.71;97.91;101272.34;5273776;28;19916;-75
2023/09/11 00:20:16;;;;;;;;;;;;;;;25.71;96.70;101269.66;5275247;28;19916;-75
2023/09/11 00:22:48;;;;;;;;;;;;;;;25.70;96.19;101268.84;5276530;28;19916;-74
2023/09/11 00:25:20;;;;;;;;;;;;;;;25.71;96.87;101264.28;5275033;28;19948;-74
2023/09/11 00:27:51;;;;;;;;;;;;;;;25.70;96.48;101265.34;5274208;28;20014;-73
2023/09/11 00:30:22;;;;;;;;;;;;;;;25.71;96.56;101266.97;5274658;28;20393;-73
2023/09/11 00:32:53;;;;;;;;;;;;;;;25.66;97.91;101267.63;5273758;28;19958;-72
2023/09/11 00:35:24;;;;;;;;;;;;;;;25.63;97.72;101265.38;5274815;28;20008;-74
2023/09/11 00:37:56;;;;;;;;;;;;;;;25.56;97.54;101259.25;5274584;28;20372;-74
2023/09/11 00:40:27;;;;;;;;;;;;;;;25.58;99.01;101262.56;5274491;28;20700;-74
2023/09/11 00:42:58;;;;;;;;;;;;;;;25.54;98.64;101260.53;5255748;28;20011;-74
2023/09/11 00:45:30;;;;;;;;;;;;;;;25.53;98.43;101256.19;5273532;28;19920;-74
2023/09/11 00:48:01;;;;;;;;;;;;;;;25.50;98.48;101253.97;5274070;28;20580;-73
2023/09/11 00:50:33;;;;;;;;;;;;;;;25.48;100.00;101262.22;5274357;28;19920;-71
2023/09/11 00:53:06;;;;;;;;;;;;;;;25.44;99.17;101261.81;5274068;28;19920;-73
2023/09/11 00:55:38;;;;;;;;;;;;;;;25.42;98.97;101260.41;5274468;28;19986;-74
2023/09/11 00:58:09;;;;;;;;;;;;;;;25.38;99.29;101260.03;5274040;28;19924;-72
2023/09/11 01:00:43;;;;;;;;;;;;;;;25.33;99.81;101267.91;5273972;28;19916;-74
2023/09/11 01:03:14;;;;;;;;;;;;;;;25.31;100.00;101253.09;5273358;28;19952;-74
2023/09/11 01:05:46;;;;;;;;;;;;;;;25.27;100.00;101252.69;5274234;28;20027;-74
2023/09/11 01:08:17;;;;;;;;;;;;;;;25.23;100.00;101257.66;5273951;28;19920;-74
2023/09/11 01:10:49;;;;;;;;;;;;;;;25.22;100.00;101255.19;5273716;28;19924;-73
2023/09/11 01:13:20;;;;;;;;;;;;;;;25.20;100.00;101254.59;5274920;28;19923;-73
2023/09/11 01:15:54;;;;;;;;;;;;;;;25.16;100.00;101248.84;5256669;28;19916;-74
2023/09/11 01:18:40;;;;;;;;;;;;;;;25.16;100.00;101248.03;5272066;28;19912;-74
2023/09/11 01:21:17;;;;;;;;;;;;;;;25.12;100.00;101254.88;5272146;28;20429;-74
2023/09/11 01:23:48;;;;;;;;;;;;;;;25.09;100.00;101249.91;5274417;28;19920;-73
2023/09/11 01:26:38;;;;;;;;;;;;;;;25.05;100.00;101251.38;5274100;28;20372;-74
2023/09/11 01:29:25;;;;;;;;;;;;;;;25.03;100.00;101246.19;5272167;28;19986;-74
2023/09/11 01:31:58;;;;;;;;;;;;;;;25.03;100.00;101251.56;5274825;28;19967;-74
2023/09/11 01:34:29;;;;;;;;;;;;;;;25.00;100.00;101247.47;5271752;28;19917;-75
2023/09/11 01:37:00;;;;;;;;;;;;;;;24.99;100.00;101245.00;5272877;28;19922;-74
2023/09/11 01:39:31;;;;;;;;;;;;;;;24.96;100.00;101243.59;5272981;28;19920;-73
2023/09/11 01:42:07;;;;;;;;;;;;;;;24.98;100.00;101249.53;5273836;28;19916;-74
2023/09/11 01:44:44;;;;;;;;;;;;;;;24.97;100.00;101247.91;5273494;28;20633;-73
2023/09/11 01:47:17;;;;;;;;;;;;;;;24.96;100.00;101240.91;5252628;28;19921;-74
2023/09/11 01:49:49;;;;;;;;;;;;;;;24.95;100.00;101243.78;5254909;28;19916;-74
2023/09/11 01:52:21;;;;;;;;;;;;;;;24.93;100.00;101240.50;5272153;28;19916;-73
2023/09/11 01:54:52;;;;;;;;;;;;;;;24.89;100.00;101239.28;5273880;28;19935;-74
2023/09/11 01:57:27;;;;;;;;;;;;;;;24.87;100.00;101236.81;5273666;28;20065;-74
2023/09/11 01:59:58;;;;;;;;;;;;;;;24.85;100.00;101238.06;5273566;28;20288;-73
2023/09/11 02:02:30;;;;;;;;;;;;;;;24.80;100.00;101238.72;5272925;28;19926;-74
2023/09/11 02:05:01;;;;;;;;;;;;;;;24.75;100.00;101235.88;5254878;28;19920;-73
2023/09/11 02:07:32;;;;;;;;;;;;;;;24.71;100.00;101227.44;5272699;28;20385;-75
2023/09/11 02:10:03;;;;;;;;;;;;;;;24.68;100.00;101227.84;5273336;28;19924;-72
2023/09/11 02:12:35;;;;;;;;;;;;;;;24.65;100.00;101227.44;5273611;28;19916;-74
2023/09/11 02:15:06;;;;;;;;;;;;;;;24.60;100.00;101224.59;5273741;28;19916;-74
2023/09/11 02:17:37;;;;;;;;;;;;;;;24.55;100.00;101224.41;5268431;22;19925;-75
2023/09/11 02:20:09;;;;;;;;;;;;;;;24.48;100.00;101224.47;5240633;28;19917;-75
2023/09/11 02:22:40;;;;;;;;;;;;;;;24.43;100.00;101218.91;5238252;28;19921;-75
2023/09/11 02:25:11;;;;;;;;;;;;;;;24.35;100.00;101222.59;5242944;28;20382;-75
2023/09/11 02:27:42;;;;;;;;;;;;;;;24.28;100.00;101217.28;5232772;28;19943;-75
2023/09/11 02:30:13;;;;;;;;;;;;;;;24.22;100.00;101218.13;5227400;28;19972;-75
2023/09/11 02:32:45;;;;;;;;;;;;;;;24.18;100.00;101208.06;5220926;28;19928;-75
2023/09/11 02:35:16;;;;;;;;;;;;;;;24.15;100.00;101206.63;5224967;28;19944;-75
2023/09/11 02:37:47;;;;;;;;;;;;;;;24.11;100.00;101215.28;5223686;28;19919;-75
2023/09/11 02:40:18;;;;;;;;;;;;;;;24.06;100.00;101215.91;5223749;28;20364;-75
2023/09/11 02:42:49;;;;;;;;;;;;;;;23.99;100.00;101215.94;5225312;28;19920;-75
2023/09/11 02:45:21;;;;;;;;;;;;;;;23.92;100.00;101212.44;5226308;28;19924;-75
2023/09/11 02:47:52;;;;;;;;;;;;;;;23.87;100.00;101209.59;5223860;28;19959;-75
2023/09/11 02:50:23;;;;;;;;;;;;;;;23.83;100.00;101210.19;5226846;28;19920;-75
2023/09/11 02:52:54;;;;;;;;;;;;;;;23.80;100.00;101208.78;5225510;28;19917;-75
2023/09/11 02:55:25;;;;;;;;;;;;;;;23.77;100.00;101210.00;5226151;28;20279;-75
2023/09/11 02:57:57;;;;;;;;;;;;;;;23.74;100.00;101202.38;5224306;28;19924;-75
2023/09/11 03:00:29;;;;;;;;;;;;;;;23.73;100.00;101210.63;5225833;28;19916;-75
2023/09/11 03:03:01;;;;;;;;;;;;;;;23.69;100.00;101210.22;5224798;28;19925;-75
2023/09/11 03:05:33;;;;;;;;;;;;;;;23.68;100.00;101191.72;5229013;28;19921;-75
2023/09/11 03:08:06;;;;;;;;;;;;;;;23.72;100.00;101200.97;5226145;28;19920;-75
2023/09/11 03:10:37;;;;;;;;;;;;;;;23.71;100.00;101200.13;5228044;28;20008;-75
2023/09/11 03:13:08;;;;;;;;;;;;;;;23.68;100.00;101197.06;5227725;28;20023;-75
2023/09/11 03:15:39;;;;;;;;;;;;;;;23.66;100.00;101188.38;5229688;28;19947;-75
2023/09/11 03:18:11;;;;;;;;;;;;;;;23.64;100.00;101195.78;5225863;28;19917;-75
2023/09/11 03:20:42;;;;;;;;;;;;;;;23.63;100.00;101184.25;5227577;28;19916;-75
2023/09/11 03:23:14;;;;;;;;;;;;;;;23.63;100.00;101180.75;5227073;28;19953;-75
2023/09/11 03:25:47;;;;;;;;;;;;;;;23.60;100.00;101183.84;5210733;28;19917;-75
2023/09/11 03:28:18;;;;;;;;;;;;;;;23.55;100.00;101171.09;5225871;28;20382;-75
2023/09/11 03:30:50;;;;;;;;;;;;;;;23.55;100.00;101184.47;5227884;28;20011;-75
2023/09/11 03:33:21;;;;;;;;;;;;;;;23.53;100.00;101187.38;5229638;28;19924;-75
2023/09/11 03:35:52;;;;;;;;;;;;;;;23.48;100.00;101175.63;5227946;28;19921;-75
2023/09/11 03:38:23;;;;;;;;;;;;;;;23.44;100.00;101177.09;5228022;28;19920;-75
2023/09/11 03:40:55;;;;;;;;;;;;;;;23.41;100.00;101175.66;5227553;28;19921;-75
2023/09/11 03:43:27;;;;;;;;;;;;;;;23.40;100.00;101179.34;5229582;28;19962;-75
2023/09/11 03:45:58;;;;;;;;;;;;;;;23.41;100.00;101169.47;5227367;28;19929;-75
2023/09/11 03:48:29;;;;;;;;;;;;;;;23.41;100.00;101172.13;5227642;28;19974;-75
2023/09/11 03:51:00;;;;;;;;;;;;;;;23.42;100.00;101171.13;5229157;28;20401;-75
2023/09/11 03:53:31;;;;;;;;;;;;;;;23.43;100.00;101170.09;5227078;28;19920;-74
2023/09/11 03:56:02;;;;;;;;;;;;;;;23.43;100.00;101168.25;5225215;28;19936;-75
2023/09/11 03:58:34;;;;;;;;;;;;;;;23.43;100.00;101156.72;5212361;28;19917;-75
2023/09/11 04:01:05;;;;;;;;;;;;;;;23.44;100.00;101158.38;5225768;28;20369;-75
2023/09/11 04:03:36;;;;;;;;;;;;;;;23.44;100.00;101151.16;5226731;28;20290;-75
2023/09/11 04:06:07;;;;;;;;;;;;;;;23.43;100.00;101146.84;5229242;28;20432;-74
2023/09/11 04:08:38;;;;;;;;;;;;;;;23.42;100.00;101142.53;5226613;28;19972;-75
2023/09/11 04:11:10;;;;;;;;;;;;;;;23.42;100.00;101139.88;5226728;28;19921;-75
2023/09/11 04:13:41;;;;;;;;;;;;;;;23.41;100.00;101145.41;5212203;28;20401;-75
2023/09/11 04:16:12;;;;;;;;;;;;;;;23.41;100.00;101145.41;5228999;28;19917;-75
2023/09/11 04:18:43;;;;;;;;;;;;;;;23.41;100.00;101134.72;5224583;28;19917;-75
2023/09/11 04:21:16;;;;;;;;;;;;;;;23.41;100.00;101140.06;5227556;28;20362;-75
2023/09/11 04:23:47;;;;;;;;;;;;;;;23.40;100.00;101135.75;5227219;28;19917;-75
2023/09/11 04:26:18;;;;;;;;;;;;;;;23.38;100.00;101130.63;5228209;28;19925;-75
2023/09/11 04:28:49;;;;;;;;;;;;;;;23.37;100.00;101123.59;5225868;28;20435;-75
2023/09/11 04:31:20;;;;;;;;;;;;;;;23.37;100.00;101122.78;5226503;28;20032;-74
2023/09/11 04:33:52;;;;;;;;;;;;;;;23.35;100.00;101127.53;5229327;28;19916;-75
2023/09/11 04:36:23;;;;;;;;;;;;;;;23.38;100.00;101124.44;5224902;28;19948;-74
2023/09/11 04:38:54;;;;;;;;;;;;;;;23.40;100.00;101128.53;5225106;28;20971;-75
2023/09/11 04:41:25;;;;;;;;;;;;;;;23.39;100.00;101129.56;5227074;28;19921;-75
2023/09/11 04:43:56;;;;;;;;;;;;;;;23.38;100.00;101132.47;5226018;28;19968;-75
2023/09/11 04:46:28;;;;;;;;;;;;;;;23.36;100.00;101137.19;5226634;28;19917;-75
2023/09/11 04:48:59;;;;;;;;;;;;;;;23.37;100.00;101136.16;5209995;28;19933;-75
2023/09/11 04:51:31;;;;;;;;;;;;;;;23.36;100.00;101142.53;5226826;28;19916;-75
2023/09/11 04:54:02;;;;;;;;;;;;;;;23.35;100.00;101140.91;5223863;28;20008;-75
2023/09/11 04:56:33;;;;;;;;;;;;;;;23.33;100.00;101137.59;5219151;28;20267;-75
2023/09/11 04:59:05;;;;;;;;;;;;;;;23.30;100.00;101138.84;5227854;28;19944;-75
2023/09/11 05:01:36;;;;;;;;;;;;;;;23.28;100.00;101143.56;5228472;28;20011;-75
2023/09/11 05:04:07;;;;;;;;;;;;;;;23.29;100.00;101137.19;5225909;28;19925;-75
2023/09/11 05:06:39;;;;;;;;;;;;;;;23.30;100.00;101150.38;5225536;28;20008;-74
2023/09/11 05:09:10;;;;;;;;;;;;;;;23.28;100.00;101144.38;5225186;28;20386;-75
2023/09/11 05:11:41;;;;;;;;;;;;;;;23.26;100.00;101154.47;5226301;28;19982;-75
2023/09/11 05:14:13;;;;;;;;;;;;;;;23.25;100.00;101155.50;5223392;28;19952;-75
2023/09/11 05:16:44;;;;;;;;;;;;;;;23.25;100.00;101149.31;5224655;28;20004;-75
2023/09/11 05:19:15;;;;;;;;;;;;;;;23.24;100.00;101155.72;5224941;28;20305;-75
2023/09/11 05:21:46;;;;;;;;;;;;;;;23.23;100.00;101154.06;5209164;28;19967;-75
2023/09/11 05:24:17;;;;;;;;;;;;;;;23.20;100.00;101157.16;5207101;28;20016;-75
2023/09/11 05:26:49;;;;;;;;;;;;;;;23.19;100.00;101152.84;5221122;28;20015;-75
2023/09/11 05:29:20;;;;;;;;;;;;;;;23.17;100.00;101155.69;5227096;28;19928;-75
2023/09/11 05:31:51;;;;;;;;;;;;;;;23.17;100.00;101154.88;5225700;28;19993;-75
2023/09/11 05:34:22;;;;;;;;;;;;;;;23.15;100.00;101157.78;5225383;28;20058;-75
2023/09/11 05:36:53;;;;;;;;;;;;;;;23.15;100.00;101164.97;5226498;28;19916;-75
2023/09/11 05:39:25;;;;;;;;;;;;;;;23.15;100.00;101160.44;5227232;28;20011;-75
2023/09/11 05:41:56;;;;;;;;;;;;;;;23.14;100.00;101171.31;5230092;28;19939;-75
2023/09/11 05:44:27;;;;;;;;;;;;;;;23.09;100.00;101163.94;5224840;28;20251;-74
2023/09/11 05:46:58;;;;;;;;;;;;;;;23.11;100.00;101171.72;5226325;28;19925;-75
2023/09/11 05:49:29;;;;;;;;;;;;;;;23.11;100.00;101172.56;5209091;28;19928;-75
2023/09/11 05:52:01;;;;;;;;;;;;;;;23.10;100.00;101170.91;5228906;28;19913;-76
2023/09/11 05:54:33;;;;;;;;;;;;;;;23.11;100.00;101177.94;5229306;28;19913;-75
2023/09/11 05:57:05;;;;;;;;;;;;;;;23.14;100.00;101176.66;5225785;28;19983;-75
2023/09/11 05:59:37;;;;;;;;;;;;;;;23.12;100.00;101176.06;5227298;28;19921;-75
2023/09/11 06:02:08;;;;;;;;;;;;;;;23.13;100.00;101177.72;5229351;28;19917;-74
2023/09/11 06:04:39;;;;;;;;;;;;;;;23.14;100.00;101180.16;5230657;28;19913;-75
2023/09/11 06:07:11;;;;;;;;;;;;;;;23.15;100.00;101184.50;5229398;28;20329;-76
2023/09/11 06:09:43;;;;;;;;;;;;;;;23.18;100.00;101180.56;5226434;28;19917;-75
2023/09/11 06:12:14;;;;;;;;;;;;;;;23.20;100.00;101183.88;5228028;28;19917;-75
2023/09/11 06:14:45;;;;;;;;;;;;;;;23.22;100.00;101188.00;5224381;28;19913;-75
2023/09/11 06:17:16;;;;;;;;;;;;;;;23.23;100.00;101184.28;5224683;28;19925;-75
2023/09/11 06:19:47;;;;;;;;;;;;;;;23.24;100.00;101185.13;5228511;28;20012;-75
2023/09/11 06:22:19;;;;;;;;;;;;;;;23.25;100.00;101181.41;5223595;28;19932;-74
2023/09/11 06:24:50;;;;;;;;;;;;;;;23.26;100.00;101186.56;5225116;28;19925;-75
2023/09/11 06:27:22;;;;;;;;;;;;;;;23.29;100.00;101174.63;5224529;28;19917;-75
2023/09/11 06:29:53;;;;;;;;;;;;;;;23.30;100.00;101185.13;5225690;28;20007;-75
2023/09/11 06:32:24;;;;;;;;;;;;;;;23.35;100.00;101181.00;5225327;28;20320;-75
2023/09/11 06:34:55;;;;;;;;;;;;;;;23.37;100.00;101193.13;5226842;28;19923;-75
2023/09/11 06:37:27;;;;;;;;;;;;;;;23.42;100.00;101198.69;5229069;28;20424;-75
2023/09/11 06:39:58;;;;;;;;;;;;;;;23.45;100.00;101195.63;5228660;28;19928;-75
2023/09/11 06:42:29;;;;;;;;;;;;;;;23.47;100.00;101196.22;5226928;28;19921;-74
2023/09/11 06:45:00;;;;;;;;;;;;;;;23.51;100.00;101191.28;5231616;28;20374;-75
2023/09/11 06:47:32;;;;;;;;;;;;;;;23.52;100.00;101193.75;5228977;28;19921;-75
2023/09/11 06:50:03;;;;;;;;;;;;;;;23.55;100.00;101195.19;5226486;28;20073;-74
2023/09/11 06:52:38;;;;;;;;;;;;;;;23.59;100.00;101195.59;5227648;28;19937;-75
2023/09/11 06:55:10;;;;;;;;;;;;;;;23.62;100.00;101201.34;5226734;28;19971;-75
2023/09/11 06:57:53;;;;;;;;;;;;;;;23.70;100.00;101192.31;5226512;28;19921;-75
2023/09/11 07:00:25;;;;;;;;;;;;;;;23.75;100.00;101195.19;5227599;28;20335;-74
2023/09/11 07:02:56;;;;;;;;;;;;;;;23.76;100.00;101192.31;5230479;28;19917;-74
2023/09/11 07:05:28;;;;;;;;;;;;;;;23.83;100.00;101192.31;5230928;28;19913;-74
2023/09/11 07:07:59;;;;;;;;;;;;;;;23.91;100.00;101185.91;5211225;28;19929;-74
2023/09/11 07:10:30;;;;;;;;;;;;;;;23.97;100.00;101183.19;5233340;28;19920;-74
2023/09/11 07:13:02;;;;;;;;;;;;;;;24.07;100.00;101181.94;5232112;28;19920;-75
2023/09/11 07:15:33;;;;;;;;;;;;;;;24.17;100.00;101183.16;5233764;28;20235;-74
2023/09/11 07:18:04;;;;;;;;;;;;;;;24.25;100.00;101172.19;5232460;28;19921;-75
2023/09/11 07:20:35;;;;;;;;;;;;;;;24.31;100.00;101173.19;5225580;28;20002;-74
2023/09/11 07:23:06;;;;;;;;;;;;;;;24.38;100.00;101179.34;5228349;28;20003;-75
2023/09/11 07:25:37;;;;;;;;;;;;;;;24.46;100.00;101179.13;5228215;28;19913;-75
2023/09/11 07:28:12;;;;;;;;;;;;;;;24.52;100.00;101180.13;5227350;28;19926;-75
2023/09/11 07:30:44;;;;;;;;;;;;;;;24.61;100.00;101183.38;5227030;28;19999;-75
2023/09/11 07:33:15;;;;;;;;;;;;;;;24.68;100.00;101184.97;5225924;28;20389;-75
2023/09/11 07:35:46;;;;;;;;;;;;;;;24.76;100.00;101186.59;5227951;28;19924;-75
2023/09/11 07:38:18;;;;;;;;;;;;;;;24.83;100.00;101191.91;5226410;28;19917;-74
2023/09/11 07:40:49;;;;;;;;;;;;;;;24.90;100.00;101193.50;5227411;28;20274;-75
2023/09/11 07:43:20;;;;;;;;;;;;;;;24.98;100.00;101198.59;5227626;28;19923;-75
2023/09/11 07:45:51;;;;;;;;;;;;;;;25.07;100.00;101203.69;5225881;28;20011;-75
2023/09/11 07:48:22;;;;;;;;;;;;;;;25.19;100.00;101199.31;5225533;28;19922;-75
2023/09/11 07:50:57;;;;;;;;;;;;;;;25.24;99.63;101202.16;5225612;28;19917;-75
2023/09/11 07:53:28;;;;;;;;;;;;;;;25.30;99.54;101198.59;5229214;28;19914;-74
2023/09/11 07:56:03;;;;;;;;;;;;;;;25.39;99.53;101208.03;5210955;28;19921;-75
2023/09/11 07:58:35;;;;;;;;;;;;;;;25.47;99.01;101209.59;5227214;28;19929;-74
2023/09/11 08:01:06;;;;;;;;;;;;;;;25.56;99.71;101216.31;5226805;28;19913;-75
2023/09/11 08:03:37;;;;;;;;;;;;;;;25.66;99.28;101215.84;5229399;28;20274;-75
2023/09/11 08:06:08;;;;;;;;;;;;;;;25.75;99.47;101219.88;5226151;28;19913;-75
2023/09/11 08:08:39;;;;;;;;;;;;;;;25.90;98.86;101222.22;5226768;28;19925;-75
2023/09/11 08:11:11;;;;;;;;;;;;;;;26.01;98.32;101220.69;5226473;28;20023;-75
2023/09/11 08:13:43;;;;;;;;;;;;;;;26.10;97.01;101222.84;5228246;28;19963;-75
2023/09/11 08:16:14;;;;;;;;;;;;;;;26.20;96.13;101230.38;5228050;28;19913;-75
2023/09/11 08:18:46;;;;;;;;;;;;;;;26.24;95.28;101228.88;5227729;28;19921;-75
2023/09/11 08:21:19;;;;;;;;;;;;;;;26.35;96.79;101236.19;5207721;28;19928;-75
2023/09/11 08:23:50;;;;;;;;;;;;;;;26.46;97.09;101221.22;5225657;28;19921;-74
2023/09/11 08:26:21;;;;;;;;;;;;;;;26.56;94.60;101226.06;5224332;28;19917;-75
2023/09/11 08:28:52;;;;;;;;;;;;;;;26.66;94.65;101226.31;5225542;28;19932;-75
2023/09/11 08:31:23;;;;;;;;;;;;;;;26.75;93.87;101221.47;5227365;28;19924;-74
2023/09/11 08:33:55;;;;;;;;;;;;;;;26.80;92.81;101217.03;5226423;28;19964;-75
2023/09/11 08:36:26;;;;;;;;;;;;;;;26.88;92.01;101221.25;5227156;28;19921;-75
2023/09/11 08:38:57;;;;;;;;;;;;;;;26.97;91.74;101221.75;5224426;28;20318;-74
2023/09/11 08:41:29;;;;;;;;;;;;;;;27.06;92.46;101220.38;5229147;28;19936;-75
2023/09/11 08:44:00;;;;;;;;;;;;;;;27.17;90.81;101219.63;5229209;28;20296;-74
2023/09/11 08:46:32;;;;;;;;;;;;;;;27.27;92.50;101233.28;5228985;28;19960;-75
2023/09/11 08:49:06;;;;;;;;;;;;;;;27.40;91.82;101229.59;5224924;28;20481;-75
2023/09/11 08:51:41;;;;;;;;;;;;;;;27.49;88.61;101220.09;5226487;28;19913;-76
2023/09/11 08:54:14;;;;;;;;;;;;;;;27.60;88.37;101213.09;5225067;28;19974;-76
2023/09/11 08:56:45;;;;;;;;;;;;;;;27.70;88.21;101213.34;5221439;28;19971;-75
2023/09/11 08:59:17;;;;;;;;;;;;;;;27.77;86.50;101218.59;5225016;28;19916;-76
2023/09/11 09:01:50;;;;;;;;;;;;;;;27.81;85.47;101226.00;5228004;28;20366;-74
2023/09/11 09:04:21;;;;;;;;;;;;;;;27.92;86.58;101226.22;5227078;28;20374;-74
2023/09/11 09:06:53;;;;;;;;;;;;;;;28.02;85.94;101218.34;5225319;28;19962;-74
2023/09/11 09:09:24;;;;;;;;;;;;;;;28.09;84.06;101227.13;5225372;28;19932;-75
2023/09/11 09:11:56;;;;;;;;;;;;;;;28.18;82.15;101216.78;5223731;28;19917;-75
2023/09/11 09:14:28;;;;;;;;;;;;;;;28.29;81.73;101222.16;5223612;28;19951;-75
2023/09/11 09:16:59;;;;;;;;;;;;;;;28.41;81.43;101227.53;5223722;28;19928;-75
2023/09/11 09:19:31;;;;;;;;;;;;;;;28.47;79.31;101217.69;5226825;28;19921;-75
2023/09/11 09:22:03;;;;;;;;;;;;;;;28.60;81.64;101229.00;5227380;28;20333;-75
2023/09/11 09:24:35;;;;;;;;;;;;;;;28.73;78.46;101221.69;5228145;28;19964;-75
2023/09/11 09:27:06;;;;;;;;;;;;;;;28.82;77.75;101226.44;5224120;28;19940;-75
2023/09/11 09:29:38;;;;;;;;;;;;;;;28.91;80.08;101229.56;5223014;28;19925;-75
2023/09/11 09:32:10;;;;;;;;;;;;;;;29.00;75.78;101230.84;5226233;28;20389;-75
2023/09/11 09:34:42;;;;;;;;;;;;;;;29.07;79.93;101222.59;5223633;28;19924;-76
2023/09/11 09:37:17;;;;;;;;;;;;;;;29.09;69.25;101225.84;5224350;28;19921;-76
2023/09/11 09:39:49;;;;;;;;;;;;;;;29.19;78.33;101225.22;5226058;28;20039;-76
2023/09/11 09:42:21;;;;;;;;;;;;;;;29.25;70.27;101224.25;5224763;28;19944;-76
2023/09/11 09:44:53;;;;;;;;;;;;;;;29.28;72.30;101223.72;5223746;28;19921;-75
2023/09/11 09:47:25;;;;;;;;;;;;;;;29.39;73.33;101225.53;5226096;28;20226;-76
2023/09/11 09:49:56;;;;;;;;;;;;;;;29.50;70.59;101226.50;5226277;28;19928;-75
2023/09/11 09:52:28;;;;;;;;;;;;;;;29.59;70.69;101230.47;5224596;28;20035;-75
2023/09/11 09:55:08;;;;;;;;;;;;;;;29.66;67.90;101231.09;5224580;28;21055;-75
2023/09/11 09:57:39;;;;;;;;;;;;;;;29.73;67.78;101223.63;5226445;28;19916;-76
2023/09/11 10:00:15;;;;;;;;;;;;;;;29.81;64.93;101215.13;5223419;28;19932;-75
2023/09/11 10:02:47;;;;;;;;;;;;;;;29.93;71.92;101219.56;5221621;28;19928;-75
2023/09/11 10:05:20;;;;;;;;;;;;;;;29.98;71.69;101223.19;5225505;28;19917;-75
2023/09/11 10:07:51;;;;;;;;;;;;;;;30.05;66.98;101229.22;5223466;28;19921;-75
2023/09/11 10:10:23;;;;;;;;;;;;;;;30.09;65.80;101229.53;5223724;28;20340;-76
2023/09/11 10:13:04;;;;;;;;;;;;;;;30.09;60.48;101221.44;5225985;28;20104;-75
2023/09/11 10:15:36;;;;;;;;;;;;;;;30.15;63.44;101233.91;5232366;28;19918;-75
2023/09/11 10:18:08;;;;;;;;;;;;;;;30.21;63.15;101226.72;5229350;28;19921;-75
2023/09/11 10:20:40;;;;;;;;;;;;;;;30.31;63.14;101221.47;5229585;28;20393;-75
2023/09/11 10:23:11;;;;;;;;;;;;;;;30.45;63.20;101224.56;5231922;28;19920;-75
2023/09/11 10:25:44;;;;;;;;;;;;;;;30.57;62.44;101221.72;5237918;28;19920;-76
2023/09/11 10:28:24;;;;;;;;;;;;;;;30.61;56.66;101215.56;5234719;28;20469;-75
2023/09/11 10:30:55;;;;;;;;;;;;;;;30.67;57.29;101219.13;5231981;28;19912;-75
2023/09/11 10:33:27;;;;;;;;;;;;;;;30.72;57.15;101217.31;5232314;28;19921;-75
2023/09/11 10:36:02;;;;;;;;;;;;;;;30.78;57.78;101212.78;5211596;28;20963;-75
2023/09/11 10:38:34;;;;;;;;;;;;;;;30.83;57.84;101212.81;5231132;28;19933;-75
2023/09/11 10:41:06;;;;;;;;;;;;;;;30.86;56.24;101206.91;5233811;28;19917;-75
2023/09/11 10:43:37;;;;;;;;;;;;;;;30.96;58.43;101208.91;5230296;28;19922;-76
2023/09/11 10:46:15;;;;;;;;;;;;;;;31.02;60.13;101213.25;5230788;28;19913;-75
2023/09/11 10:48:46;;;;;;;;;;;;;;;31.02;56.00;101203.25;5228048;28;19983;-75
2023/09/11 10:51:17;;;;;;;;;;;;;;;31.09;56.78;101205.75;5227924;28;19917;-75
2023/09/11 10:53:50;;;;;;;;;;;;;;;31.12;57.32;101202.53;5229226;28;19917;-75
2023/09/11 10:56:22;;;;;;;;;;;;;;;31.17;60.42;101205.25;5230678;28;19940;-75
2023/09/11 10:58:53;;;;;;;;;;;;;;;31.18;55.64;101201.50;5228576;28;19917;-75
2023/09/11 11:01:24;;;;;;;;;;;;;;;31.25;55.50;101198.56;5231292;28;20004;-75
2023/09/11 11:03:56;;;;;;;;;;;;;;;31.36;56.83;101199.47;5227211;28;19917;-76
2023/09/11 11:06:27;;;;;;;;;;;;;;;31.45;55.13;101197.94;5232198;28;19944;-75
2023/09/11 11:08:59;;;;;;;;;;;;;;;31.52;53.06;101198.53;5228726;28;19932;-76
2023/09/11 11:11:31;;;;;;;;;;;;;;;31.61;53.81;101190.72;5228426;28;20476;-76
2023/09/11 11:14:17;;;;;;;;;;;;;;;31.66;53.26;101194.25;5232537;28;19917;-77
2023/09/11 11:17:04;;;;;;;;;;;;;;;31.66;51.40;101205.09;5230533;28;19913;-76
2023/09/11 11:19:42;;;;;;;;;;;;;;;31.75;51.78;101202.72;5231019;28;19921;-75
2023/09/11 11:22:28;;;;;;;;;;;;;;;31.76;50.58;101192.69;5229031;28;19924;-76
2023/09/11 11:25:05;;;;;;;;;;;;;;;31.79;49.54;101192.16;5224404;28;19916;-75
2023/09/11 11:27:40;;;;;;;;;;;;;;;31.95;53.30;101193.91;5229500;28;20417;-75
2023/09/11 11:30:12;;;;;;;;;;;;;;;32.04;48.37;101195.00;5229333;28;20382;-75
2023/09/11 11:32:43;;;;;;;;;;;;;;;32.12;50.18;101193.69;5229798;28;19971;-75
2023/09/11 11:35:16;;;;;;;;;;;;;;;32.14;50.29;101195.06;5230787;28;20000;-75
2023/09/11 11:37:47;;;;;;;;;;;;;;;32.18;52.12;101190.72;5231448;28;19947;-75
2023/09/11 11:40:18;;;;;;;;;;;;;;;32.18;51.42;101192.63;5232033;28;19909;-76
2023/09/11 11:42:49;;;;;;;;;;;;;;;32.25;50.96;101189.66;5226631;28;20066;-76
2023/09/11 11:45:21;;;;;;;;;;;;;;;32.30;49.92;101182.34;5231161;28;19921;-75
2023/09/11 11:47:52;;;;;;;;;;;;;;;32.38;52.86;101179.09;5208310;28;19913;-76
2023/09/11 11:50:23;;;;;;;;;;;;;;;32.38;49.55;101183.72;5229613;28;20354;-76
2023/09/11 11:52:54;;;;;;;;;;;;;;;32.32;52.86;101188.34;5230819;28;19913;-76
2023/09/11 11:55:26;;;;;;;;;;;;;;;32.30;47.31;101185.06;5227171;28;20480;-75
2023/09/11 11:57:57;;;;;;;;;;;;;;;32.41;49.38;101180.50;5228900;28;19916;-75
2023/09/11 12:00:28;;;;;;;;;;;;;;;32.48;48.55;101183.78;5227463;28;19917;-76
2023/09/11 12:03:03;;;;;;;;;;;;;;;32.60;50.10;101180.81;5225873;28;19917;-76
2023/09/11 12:05:40;;;;;;;;;;;;;;;32.68;47.05;101185.72;5206889;28;20329;-75
2023/09/11 12:08:13;;;;;;;;;;;;;;;32.79;47.90;101189.25;5227823;28;19921;-75
2023/09/11 12:10:45;;;;;;;;;;;;;;;32.84;46.74;101183.81;5224222;28;19932;-75
2023/09/11 12:13:17;;;;;;;;;;;;;;;32.86;46.28;101182.47;5228491;28;20309;-75
2023/09/11 12:15:56;;;;;;;;;;;;;;;32.82;43.91;101192.25;5224006;28;19917;-75
2023/09/11 12:18:28;;;;;;;;;;;;;;;32.90;46.42;101186.25;5225579;28;19967;-76
2023/09/11 12:21:01;;;;;;;;;;;;;;;32.91;44.90;101182.47;5226708;28;20000;-75
2023/09/11 12:23:32;;;;;;;;;;;;;;;32.88;41.74;101180.31;5229021;28;20004;-76
2023/09/11 12:26:04;;;;;;;;;;;;;;;32.82;43.12;101186.00;5225445;28;20393;-76
2023/09/11 12:28:35;;;;;;;;;;;;;;;32.80;44.30;101194.41;5225081;28;19917;-75
2023/09/11 12:31:06;;;;;;;;;;;;;;;32.84;43.53;101187.34;5224914;28;19925;-75
2023/09/11 12:33:38;;;;;;;;;;;;;;;32.87;47.36;101186.00;5224982;28;19956;-75
2023/09/11 12:36:09;;;;;;;;;;;;;;;32.86;45.91;101190.59;5227152;28;19924;-75
2023/09/11 12:38:44;;;;;;;;;;;;;;;32.81;41.44;101192.53;5225518;28;20329;-75
2023/09/11 12:41:20;;;;;;;;;;;;;;;32.80;43.51;101194.41;5226536;28;20019;-75
2023/09/11 12:43:52;;;;;;;;;;;;;;;32.84;42.48;101187.34;5225932;28;20039;-75
2023/09/11 12:46:23;;;;;;;;;;;;;;;32.92;41.56;101184.09;5228334;28;19988;-75
2023/09/11 12:48:54;;;;;;;;;;;;;;;33.01;41.57;101184.41;5224013;28;20411;-75
2023/09/11 12:51:26;;;;;;;;;;;;;;;33.08;42.56;101187.66;5224757;28;20287;-75
2023/09/11 12:53:57;;;;;;;;;;;;;;;33.10;44.58;101181.94;5224990;28;19913;-75